Kalaheo, Hawaii
Current Conditions -  °F | °C
As of 9:53 PM on Friday 28 Nov 2014 (Local Time) from PHLI Reporting Station
Overcast Overcast  
Wind Chill: 75°   Ceiling: 5500
Heat Index: 75°   Visibility: 10mi
Dew Point: 62°   Wind: 21mph
Humidity: 64%   Direction: 50°NE
Pressure: 30.09"   Gusts: 29mph
Location:  21.91°N, 159.5°W
Report Text: PHLI 290753Z AUTO 05018G25KT 10SM FEW033 OVC055 24/17 A3009 RMK AO2 PK WND 05027/0717 SLP186 T02390167 TSNO $
Loading
Personal Weather Stations






























Interactive Weather Map New forecast layout! Learn more

10-Day Weather Forecast

Advertisements
Track Severe Weather on mobile